Troy, Alabama
Current Conditions -  °F | °C
As of 10:53 AM on Saturday 25 Oct 2014 (Local Time) from KTOI Reporting Station
Clear Clear  
Wind Chill: 71°   Ceiling: Unl
Heat Index: 71°   Visibility: 10mi
Dew Point: 49°   Wind: 10mph
Humidity: 45%   Direction: 20°NNE
Pressure: 30.11"   Gusts: NA
Location:  31.81°N, 85.97°W
Report Text: KTOI 251553Z AUTO 02009KT 10SM CLR 22/09 A3011 RMK AO2 SLP193 T02170094
Loading
Personal Weather Stations






























Interactive Weather Map
Tropical Storm Tracking
New forecast layout! Learn more

10-Day Weather Forecast

Advertisements
Track Severe Weather on mobile